Time;durP1;ratioP1;P1;durP2;ratioP2;P2;SDS_P1;SDS_P2;PMS_P1;PMS_P2;Temp;Humidity;BMP_temperature;BMP_pressure;BME280_temperature;BME280_humidity;BME280_pressure;Samples;Min_cycle;Max_cycle;Signal;HPM_P1;HPM_P2
2022/03/25 00:01:25;;;;;;;;;;;7.80;61.30;;;;;;5034504;28;20023;-85
2022/03/25 00:03:51;;;;;;;;;;;7.80;61.10;;;;;;5037809;28;20313;-85
2022/03/25 00:06:17;;;;;;;;;;;7.80;61.80;;;;;;5022506;28;19924;-84
2022/03/25 00:08:42;;;;;;;;;;;7.80;62.20;;;;;;5020699;28;20373;-83
2022/03/25 00:11:08;;;;;;;;;;;7.70;62.10;;;;;;5025658;28;19953;-83
2022/03/25 00:13:33;;;;;;;;;;;7.70;62.70;;;;;;5027797;28;20335;-84
2022/03/25 00:15:59;;;;;;;;;;;7.70;61.70;;;;;;5010998;28;19952;-84
2022/03/25 00:18:24;;;;;;;;;;;7.70;61.90;;;;;;5028930;28;19924;-84
2022/03/25 00:20:50;;;;;;;;;;;7.70;63.10;;;;;;5020963;28;19932;-84
2022/03/25 00:23:16;;;;;;;;;;;7.60;63.20;;;;;;5028085;28;20408;-83
2022/03/25 00:25:41;;;;;;;;;;;7.50;63.50;;;;;;5011019;28;20125;-84
2022/03/25 00:28:07;;;;;;;;;;;7.50;63.80;;;;;;5020455;28;20526;-84
2022/03/25 00:30:32;;;;;;;;;;;7.50;63.40;;;;;;5043273;28;19964;-84
2022/03/25 00:32:58;;;;;;;;;;;7.50;64.10;;;;;;5028501;28;19980;-84
2022/03/25 00:35:23;;;;;;;;;;;7.50;64.50;;;;;;5029102;28;19917;-85
2022/03/25 00:37:49;;;;;;;;;;;7.50;64.40;;;;;;5024566;28;20012;-84
2022/03/25 00:40:15;;;;;;;;;;;7.50;63.60;;;;;;5024027;28;19917;-85
2022/03/25 00:42:41;;;;;;;;;;;7.40;63.60;;;;;;5027630;28;19913;-83
2022/03/25 00:45:07;;;;;;;;;;;7.30;64.50;;;;;;5029370;28;19917;-85
2022/03/25 00:47:32;;;;;;;;;;;7.30;63.30;;;;;;5028491;28;19912;-84
2022/03/25 00:49:59;;;;;;;;;;;7.20;65.50;;;;;;5017101;28;20332;-83
2022/03/25 00:52:24;;;;;;;;;;;7.10;65.30;;;;;;5025940;28;19913;-83
2022/03/25 00:54:50;;;;;;;;;;;7.20;64.00;;;;;;5015540;28;19925;-84
2022/03/25 00:57:16;;;;;;;;;;;7.10;64.80;;;;;;5024850;28;19913;-84
2022/03/25 00:59:41;;;;;;;;;;;7.10;65.30;;;;;;5035949;28;19956;-82
2022/03/25 01:02:08;;;;;;;;;;;7.10;65.60;;;;;;5039844;28;19913;-84
2022/03/25 01:04:34;;;;;;;;;;;7.10;65.70;;;;;;5034731;28;19975;-83
2022/03/25 01:06:59;;;;;;;;;;;7.10;65.50;;;;;;5036177;28;19990;-83
2022/03/25 01:09:25;;;;;;;;;;;7.00;65.90;;;;;;5030937;28;19924;-84
2022/03/25 01:11:50;;;;;;;;;;;7.10;64.90;;;;;;5041442;28;19913;-84
2022/03/25 01:14:16;;;;;;;;;;;7.00;65.80;;;;;;5017776;28;20378;-82
2022/03/25 01:16:41;;;;;;;;;;;6.90;66.40;;;;;;5011489;28;19917;-84
2022/03/25 01:19:07;;;;;;;;;;;6.90;66.70;;;;;;5030078;28;19935;-83
2022/03/25 01:21:32;;;;;;;;;;;6.90;67.00;;;;;;5042716;28;19956;-83
2022/03/25 01:23:58;;;;;;;;;;;6.90;66.60;;;;;;5031987;28;20257;-82
2022/03/25 01:26:24;;;;;;;;;;;6.90;66.50;;;;;;5026639;28;20368;-83
2022/03/25 01:28:50;;;;;;;;;;;6.80;66.80;;;;;;5016221;28;19917;-84
2022/03/25 01:31:16;;;;;;;;;;;6.90;67.30;;;;;;5036040;28;19948;-84
2022/03/25 01:33:42;;;;;;;;;;;6.80;66.30;;;;;;5022983;28;19918;-84
2022/03/25 01:36:07;;;;;;;;;;;6.80;66.40;;;;;;5028035;28;19913;-84
2022/03/25 01:38:33;;;;;;;;;;;6.90;66.10;;;;;;5022072;28;20050;-84
2022/03/25 01:40:58;;;;;;;;;;;6.80;67.30;;;;;;5016503;28;19936;-84
2022/03/25 01:43:24;;;;;;;;;;;6.80;66.50;;;;;;5030984;28;20000;-83
2022/03/25 01:45:50;;;;;;;;;;;6.70;66.90;;;;;;5024798;28;19917;-84
2022/03/25 01:48:18;;;;;;;;;;;6.70;67.20;;;;;;5028991;28;19913;-83
2022/03/25 01:50:45;;;;;;;;;;;6.70;67.20;;;;;;5024855;28;19920;-82
2022/03/25 01:53:15;;;;;;;;;;;6.60;67.30;;;;;;5030032;28;19956;-83
2022/03/25 01:55:46;;;;;;;;;;;6.60;67.00;;;;;;5028254;28;19920;-84
2022/03/25 01:58:12;;;;;;;;;;;6.60;66.50;;;;;;5017662;28;20040;-82
2022/03/25 02:00:37;;;;;;;;;;;6.60;67.50;;;;;;5041377;28;20371;-83
2022/03/25 02:03:03;;;;;;;;;;;6.60;67.40;;;;;;5026904;28;19914;-83
2022/03/25 02:05:28;;;;;;;;;;;6.50;67.90;;;;;;5041785;28;19918;-83
2022/03/25 02:07:54;;;;;;;;;;;6.50;68.00;;;;;;5028961;28;20012;-84
2022/03/25 02:10:19;;;;;;;;;;;6.60;67.80;;;;;;5015344;28;19921;-81
2022/03/25 02:12:45;;;;;;;;;;;6.50;68.00;;;;;;5029108;28;19947;-84
2022/03/25 02:15:10;;;;;;;;;;;6.50;67.50;;;;;;5015737;28;19913;-83
2022/03/25 02:17:37;;;;;;;;;;;6.50;67.60;;;;;;5029658;28;19925;-84
2022/03/25 02:20:07;;;;;;;;;;;6.40;69.10;;;;;;5026260;28;19921;-84
2022/03/25 02:22:34;;;;;;;;;;;6.40;68.80;;;;;;5032481;28;19988;-84
2022/03/25 02:25:00;;;;;;;;;;;6.40;68.30;;;;;;5031636;28;19994;-83
2022/03/25 02:27:26;;;;;;;;;;;6.40;68.60;;;;;;5029074;28;19917;-83
2022/03/25 02:29:51;;;;;;;;;;;6.40;69.10;;;;;;5013516;28;20325;-85
2022/03/25 02:32:17;;;;;;;;;;;6.30;68.60;;;;;;5028402;28;19913;-84
2022/03/25 02:34:42;;;;;;;;;;;6.30;68.80;;;;;;5047824;28;19948;-83
2022/03/25 02:37:08;;;;;;;;;;;6.20;69.20;;;;;;5028280;28;20389;-84
2022/03/25 02:39:34;;;;;;;;;;;6.20;69.40;;;;;;5023398;28;19913;-85
2022/03/25 02:41:59;;;;;;;;;;;6.20;69.70;;;;;;5027271;28;19924;-83
2022/03/25 02:44:25;;;;;;;;;;;6.10;70.00;;;;;;5026101;28;20277;-83
2022/03/25 02:46:51;;;;;;;;;;;6.10;69.80;;;;;;5023572;28;19917;-84
2022/03/25 02:49:18;;;;;;;;;;;6.10;69.70;;;;;;5036927;28;19921;-84
2022/03/25 02:51:43;;;;;;;;;;;6.10;69.40;;;;;;5024390;28;20358;-84
2022/03/25 02:54:08;;;;;;;;;;;6.00;69.80;;;;;;5020946;28;19909;-85
2022/03/25 02:56:34;;;;;;;;;;;6.10;70.30;;;;;;5026781;28;19919;-83
2022/03/25 02:58:59;;;;;;;;;;;6.10;70.20;;;;;;5038715;28;20305;-84
2022/03/25 03:01:25;;;;;;;;;;;6.10;69.40;;;;;;5035835;28;20076;-85
2022/03/25 03:03:51;;;;;;;;;;;6.00;70.30;;;;;;5030877;28;20011;-85
2022/03/25 03:06:16;;;;;;;;;;;6.00;70.00;;;;;;5028286;28;19925;-85
2022/03/25 03:08:42;;;;;;;;;;;6.00;69.90;;;;;;5043765;28;19917;-83
2022/03/25 03:11:08;;;;;;;;;;;6.00;70.50;;;;;;5031452;28;19913;-82
2022/03/25 03:13:33;;;;;;;;;;;6.00;69.90;;;;;;5028223;28;19918;-83
2022/03/25 03:15:59;;;;;;;;;;;6.00;70.30;;;;;;5013414;28;19929;-84
2022/03/25 03:18:24;;;;;;;;;;;6.00;70.50;;;;;;5017243;28;19913;-84
2022/03/25 03:20:50;;;;;;;;;;;6.00;70.30;;;;;;5028907;28;19925;-84
2022/03/25 03:23:15;;;;;;;;;;;6.00;70.30;;;;;;5034344;28;19913;-84
2022/03/25 03:25:41;;;;;;;;;;;6.00;70.10;;;;;;5034454;28;20004;-83
2022/03/25 03:28:07;;;;;;;;;;;5.90;70.40;;;;;;5023585;28;19970;-84
2022/03/25 03:30:33;;;;;;;;;;;5.80;70.70;;;;;;5029794;28;20353;-85
2022/03/25 03:32:59;;;;;;;;;;;5.80;70.50;;;;;;5035166;28;19963;-83
2022/03/25 03:35:25;;;;;;;;;;;5.90;70.50;;;;;;5017389;28;20471;-85
2022/03/25 03:37:51;;;;;;;;;;;5.70;70.80;;;;;;5018438;28;19975;-85
2022/03/25 03:40:16;;;;;;;;;;;5.70;71.50;;;;;;5028833;28;20029;-84
2022/03/25 03:42:43;;;;;;;;;;;5.60;71.00;;;;;;5032875;28;20468;-85
2022/03/25 03:45:08;;;;;;;;;;;5.50;70.50;;;;;;5026002;28;19913;-84
2022/03/25 03:47:34;;;;;;;;;;;5.60;71.10;;;;;;5034515;28;19932;-86
2022/03/25 03:50:00;;;;;;;;;;;5.60;71.10;;;;;;5028361;28;19913;-83
2022/03/25 03:52:26;;;;;;;;;;;5.60;71.20;;;;;;5025867;28;19948;-85
2022/03/25 03:54:51;;;;;;;;;;;5.60;71.10;;;;;;5032894;28;19917;-84
2022/03/25 03:57:17;;;;;;;;;;;5.60;72.10;;;;;;5033265;28;20277;-84
2022/03/25 03:59:42;;;;;;;;;;;5.60;71.50;;;;;;5030259;28;20004;-84
2022/03/25 04:02:08;;;;;;;;;;;5.50;72.00;;;;;;5017725;28;20016;-83
2022/03/25 04:04:34;;;;;;;;;;;5.40;71.90;;;;;;5029007;28;19956;-83
2022/03/25 04:07:00;;;;;;;;;;;5.40;71.70;;;;;;5039164;28;19921;-84
2022/03/25 04:09:26;;;;;;;;;;;5.30;71.90;;;;;;5034026;28;20277;-83
2022/03/25 04:11:52;;;;;;;;;;;5.40;71.80;;;;;;5034363;28;19927;-84
2022/03/25 04:14:17;;;;;;;;;;;5.40;72.20;;;;;;5041123;28;19965;-83
2022/03/25 04:16:43;;;;;;;;;;;5.40;71.80;;;;;;5026700;28;19921;-83
2022/03/25 04:19:09;;;;;;;;;;;5.30;71.60;;;;;;5043533;28;19920;-83
2022/03/25 04:21:35;;;;;;;;;;;5.30;72.30;;;;;;5051427;28;19917;-82
2022/03/25 04:24:00;;;;;;;;;;;5.20;72.20;;;;;;5036322;28;19940;-83
2022/03/25 04:26:25;;;;;;;;;;;5.10;73.20;;;;;;5047493;28;19955;-83
2022/03/25 04:28:51;;;;;;;;;;;5.10;73.30;;;;;;5045807;28;20239;-84
2022/03/25 04:31:16;;;;;;;;;;;5.00;73.20;;;;;;5045262;28;19913;-84
2022/03/25 04:33:42;;;;;;;;;;;5.10;73.40;;;;;;5052248;28;19917;-84
2022/03/25 04:36:08;;;;;;;;;;;5.00;73.10;;;;;;5048838;28;20006;-84
2022/03/25 04:38:34;;;;;;;;;;;5.10;73.50;;;;;;5036886;28;19943;-84
2022/03/25 04:40:59;;;;;;;;;;;5.10;74.00;;;;;;5043200;28;20049;-81
2022/03/25 04:43:25;;;;;;;;;;;5.00;73.70;;;;;;5033146;28;19924;-84
2022/03/25 04:45:50;;;;;;;;;;;5.10;73.30;;;;;;5033994;28;19967;-85
2022/03/25 04:48:16;;;;;;;;;;;5.10;73.50;;;;;;5034044;28;19913;-85
2022/03/25 04:50:43;;;;;;;;;;;5.10;73.80;;;;;;5029322;28;19917;-84
2022/03/25 04:53:09;;;;;;;;;;;5.10;74.40;;;;;;5027511;28;19913;-85
2022/03/25 04:55:35;;;;;;;;;;;5.20;73.90;;;;;;5029936;28;19971;-83
2022/03/25 04:58:00;;;;;;;;;;;5.20;73.30;;;;;;5035472;28;19916;-83
2022/03/25 05:00:26;;;;;;;;;;;5.20;73.10;;;;;;5026562;28;20476;-83
2022/03/25 05:02:52;;;;;;;;;;;5.10;73.70;;;;;;5039385;28;19924;-83
2022/03/25 05:05:17;;;;;;;;;;;5.10;73.50;;;;;;5028727;28;19917;-83
2022/03/25 05:07:43;;;;;;;;;;;5.20;73.90;;;;;;5028129;28;19917;-84
2022/03/25 05:10:11;;;;;;;;;;;5.20;73.70;;;;;;5029107;28;19910;-84
2022/03/25 05:12:38;;;;;;;;;;;5.10;74.10;;;;;;5027872;28;20000;-85
2022/03/25 05:15:04;;;;;;;;;;;5.20;73.90;;;;;;5044099;28;19956;-84
2022/03/25 05:17:30;;;;;;;;;;;5.30;73.70;;;;;;5021341;28;19959;-85
2022/03/25 05:19:55;;;;;;;;;;;5.30;73.60;;;;;;5030748;28;19917;-84
2022/03/25 05:22:21;;;;;;;;;;;5.20;73.80;;;;;;5042185;28;19913;-84
2022/03/25 05:24:46;;;;;;;;;;;5.20;73.60;;;;;;5032748;28;20015;-84
2022/03/25 05:27:12;;;;;;;;;;;5.30;73.80;;;;;;5031007;28;20058;-84
2022/03/25 05:29:38;;;;;;;;;;;5.20;73.70;;;;;;5027242;28;19913;-82
2022/03/25 05:32:04;;;;;;;;;;;5.10;74.00;;;;;;5031547;28;19913;-83
2022/03/25 05:34:29;;;;;;;;;;;5.10;74.10;;;;;;5047288;28;19957;-84
2022/03/25 05:36:55;;;;;;;;;;;5.10;74.40;;;;;;5033045;28;19917;-82
2022/03/25 05:39:20;;;;;;;;;;;5.10;74.20;;;;;;5032945;28;19916;-85
2022/03/25 05:41:46;;;;;;;;;;;5.10;73.90;;;;;;5033067;28;19917;-85
2022/03/25 05:44:12;;;;;;;;;;;5.20;73.60;;;;;;5032060;28;19913;-84
2022/03/25 05:46:38;;;;;;;;;;;5.10;74.40;;;;;;5015493;28;19913;-83
2022/03/25 05:49:04;;;;;;;;;;;5.20;74.10;;;;;;5019036;28;19971;-84
2022/03/25 05:51:30;;;;;;;;;;;5.20;74.30;;;;;;5030452;28;19936;-85
2022/03/25 05:53:55;;;;;;;;;;;5.30;74.10;;;;;;5049368;28;19913;-83
2022/03/25 05:56:21;;;;;;;;;;;5.30;74.00;;;;;;5023859;28;19972;-85
2022/03/25 05:58:49;;;;;;;;;;;5.30;73.80;;;;;;5018361;28;19924;-85
2022/03/25 06:01:14;;;;;;;;;;;5.40;74.10;;;;;;5033508;28;19917;-86
2022/03/25 06:03:41;;;;;;;;;;;5.40;73.90;;;;;;5033011;28;19971;-81
2022/03/25 06:06:06;;;;;;;;;;;5.40;74.30;;;;;;5029523;28;19917;-81
2022/03/25 06:08:32;;;;;;;;;;;5.60;74.30;;;;;;5026963;28;20258;-82
2022/03/25 06:10:59;;;;;;;;;;;5.60;74.10;;;;;;5025453;28;19987;-83
2022/03/25 06:13:25;;;;;;;;;;;5.60;73.90;;;;;;5043409;28;19998;-81
2022/03/25 06:15:50;;;;;;;;;;;5.60;74.30;;;;;;5042579;28;19901;-80
2022/03/25 06:18:16;;;;;;;;;;;5.60;74.20;;;;;;5051176;28;19911;-79
2022/03/25 06:20:41;;;;;;;;;;;5.70;74.30;;;;;;5037738;28;19925;-81
2022/03/25 06:23:07;;;;;;;;;;;5.80;73.60;;;;;;5025077;28;19923;-80
2022/03/25 06:25:33;;;;;;;;;;;5.90;73.20;;;;;;5031505;28;19913;-81
2022/03/25 06:27:59;;;;;;;;;;;5.80;73.30;;;;;;5022515;28;19920;-80
2022/03/25 06:30:27;;;;;;;;;;;5.70;74.30;;;;;;5020282;28;19917;-82
2022/03/25 06:32:53;;;;;;;;;;;5.80;74.60;;;;;;5046805;28;20029;-83
2022/03/25 06:35:19;;;;;;;;;;;5.90;74.60;;;;;;5046855;28;19972;-82
2022/03/25 06:37:45;;;;;;;;;;;5.90;74.30;;;;;;5017681;28;19913;-82
2022/03/25 06:40:11;;;;;;;;;;;5.90;74.50;;;;;;5030215;28;19913;-82
2022/03/25 06:42:37;;;;;;;;;;;5.80;74.30;;;;;;5032144;28;19921;-82
2022/03/25 06:45:07;;;;;;;;;;;5.90;74.90;;;;;;5023026;28;19967;-78
2022/03/25 06:47:32;;;;;;;;;;;5.90;74.70;;;;;;5030616;28;19917;-81
2022/03/25 06:49:58;;;;;;;;;;;5.90;74.50;;;;;;5019151;28;19913;-81
2022/03/25 06:52:24;;;;;;;;;;;5.90;75.00;;;;;;5017851;28;20262;-81
2022/03/25 06:54:49;;;;;;;;;;;6.00;74.80;;;;;;5028630;28;20493;-80
2022/03/25 06:57:15;;;;;;;;;;;6.10;74.90;;;;;;5029941;28;19929;-84
2022/03/25 06:59:44;;;;;;;;;;;6.10;74.50;;;;;;5014877;28;20006;-83
2022/03/25 07:02:10;;;;;;;;;;;6.20;75.10;;;;;;5015535;28;19981;-82
2022/03/25 07:04:36;;;;;;;;;;;6.30;74.50;;;;;;5024980;28;20397;-82
2022/03/25 07:07:02;;;;;;;;;;;6.30;74.40;;;;;;5043810;28;19919;-83
2022/03/25 07:09:29;;;;;;;;;;;6.30;74.90;;;;;;5030608;28;19917;-82
2022/03/25 07:11:55;;;;;;;;;;;6.50;74.70;;;;;;5029103;28;19913;-83
2022/03/25 07:14:21;;;;;;;;;;;6.60;74.20;;;;;;5045319;28;19992;-82
2022/03/25 07:16:46;;;;;;;;;;;6.50;73.50;;;;;;5030358;28;20380;-84
2022/03/25 07:19:12;;;;;;;;;;;6.80;73.80;;;;;;5031401;28;19947;-85
2022/03/25 07:21:40;;;;;;;;;;;7.00;73.10;;;;;;5032655;28;19923;-85
2022/03/25 07:24:06;;;;;;;;;;;7.10;73.00;;;;;;5030928;28;19917;-81
2022/03/25 07:26:32;;;;;;;;;;;7.20;73.10;;;;;;5032559;28;20006;-80
2022/03/25 07:28:57;;;;;;;;;;;7.30;72.50;;;;;;5039510;28;19977;-82
2022/03/25 07:31:28;;;;;;;;;;;7.40;72.50;;;;;;5055368;28;20338;-81
2022/03/25 07:33:57;;;;;;;;;;;7.20;72.30;;;;;;5061907;28;19912;-81
2022/03/25 07:36:22;;;;;;;;;;;7.50;72.70;;;;;;5065764;28;19956;-81
2022/03/25 07:38:48;;;;;;;;;;;7.50;72.30;;;;;;5035830;28;19920;-82
2022/03/25 07:41:13;;;;;;;;;;;7.60;72.40;;;;;;5025611;28;19943;-82
2022/03/25 07:43:39;;;;;;;;;;;7.60;71.80;;;;;;5033035;28;19913;-83
2022/03/25 07:46:05;;;;;;;;;;;7.60;71.60;;;;;;5023990;28;19913;-83
2022/03/25 07:48:30;;;;;;;;;;;7.70;71.60;;;;;;5044463;28;19914;-82
2022/03/25 07:50:56;;;;;;;;;;;7.90;70.90;;;;;;5031285;28;19935;-82
2022/03/25 07:53:22;;;;;;;;;;;7.90;70.30;;;;;;5026165;28;20417;-81
2022/03/25 07:55:50;;;;;;;;;;;8.00;70.70;;;;;;5030296;28;21456;-83
2022/03/25 07:58:19;;;;;;;;;;;8.10;66.80;;;;;;5030551;28;19914;-82
2022/03/25 08:00:48;;;;;;;;;;;8.30;65.00;;;;;;5037215;28;19921;-81
2022/03/25 08:03:14;;;;;;;;;;;8.40;67.50;;;;;;5046453;28;19914;-81
2022/03/25 08:05:40;;;;;;;;;;;8.50;65.60;;;;;;5039484;28;19928;-81
2022/03/25 08:08:06;;;;;;;;;;;8.60;64.70;;;;;;5023660;28;19923;-80
2022/03/25 08:10:32;;;;;;;;;;;8.60;66.00;;;;;;5044285;28;19952;-81
2022/03/25 08:12:58;;;;;;;;;;;8.80;67.70;;;;;;5034896;28;19913;-81
2022/03/25 08:15:25;;;;;;;;;;;8.80;67.20;;;;;;5055089;28;19928;-81
2022/03/25 08:17:50;;;;;;;;;;;8.80;66.00;;;;;;5033516;28;19972;-81
2022/03/25 08:20:19;;;;;;;;;;;9.00;67.00;;;;;;5025532;28;19925;-81
2022/03/25 08:22:45;;;;;;;;;;;9.10;67.50;;;;;;5016202;28;19913;-79
2022/03/25 08:28:00;;;;;;;;;;;9.30;67.10;;;;;;5018921;28;19920;-82
2022/03/25 08:30:26;;;;;;;;;;;9.40;65.10;;;;;;5011217;28;20015;-81
2022/03/25 08:32:51;;;;;;;;;;;9.50;64.60;;;;;;5018016;28;19960;-82
2022/03/25 08:35:17;;;;;;;;;;;9.60;64.10;;;;;;5030950;28;19913;-81
2022/03/25 08:37:42;;;;;;;;;;;9.60;64.40;;;;;;5028966;28;19925;-82
2022/03/25 08:40:09;;;;;;;;;;;9.70;61.40;;;;;;5025950;28;19913;-82
2022/03/25 08:42:34;;;;;;;;;;;9.80;61.60;;;;;;5015291;28;19909;-85
2022/03/25 08:45:00;;;;;;;;;;;9.90;59.90;;;;;;5028964;28;20364;-81
2022/03/25 08:47:25;;;;;;;;;;;10.00;60.30;;;;;;5023360;28;19952;-81
2022/03/25 08:49:51;;;;;;;;;;;10.10;59.50;;;;;;5015387;28;19921;-82
2022/03/25 08:52:17;;;;;;;;;;;10.20;58.70;;;;;;5020079;28;20370;-83
2022/03/25 08:54:43;;;;;;;;;;;10.40;59.80;;;;;;5021954;28;19924;-83
2022/03/25 08:57:09;;;;;;;;;;;10.50;60.50;;;;;;5032153;28;19913;-82
2022/03/25 08:59:35;;;;;;;;;;;10.60;60.70;;;;;;5032781;28;19921;-83
2022/03/25 09:02:00;;;;;;;;;;;10.70;60.80;;;;;;5043842;28;20460;-82
2022/03/25 09:04:26;;;;;;;;;;;10.80;60.80;;;;;;5049280;28;19940;-84
2022/03/25 09:06:51;;;;;;;;;;;10.90;60.00;;;;;;5027726;28;20361;-83
2022/03/25 09:09:17;;;;;;;;;;;11.00;59.30;;;;;;5024434;28;19913;-80
2022/03/25 09:11:42;;;;;;;;;;;11.00;58.20;;;;;;5051205;28;19932;-84
2022/03/25 09:14:08;;;;;;;;;;;11.10;58.60;;;;;;5053956;28;19933;-82
2022/03/25 09:16:34;;;;;;;;;;;11.20;59.30;;;;;;5053477;28;19963;-84
2022/03/25 09:18:59;;;;;;;;;;;11.30;58.50;;;;;;5027081;28;19913;-83
2022/03/25 09:21:25;;;;;;;;;;;11.60;58.10;;;;;;5024352;28;20361;-84
2022/03/25 09:23:50;;;;;;;;;;;11.60;56.10;;;;;;5033225;28;19974;-84
2022/03/25 09:26:16;;;;;;;;;;;11.70;56.70;;;;;;5033269;28;19948;-83
2022/03/25 09:28:41;;;;;;;;;;;11.90;57.50;;;;;;5033330;28;20392;-83
2022/03/25 09:31:07;;;;;;;;;;;12.00;56.20;;;;;;5026352;28;20408;-83
2022/03/25 09:33:33;;;;;;;;;;;12.10;56.80;;;;;;5034775;28;20361;-84
2022/03/25 09:35:59;;;;;;;;;;;12.10;53.00;;;;;;5031191;28;19913;-83
2022/03/25 09:38:24;;;;;;;;;;;12.30;54.10;;;;;;5028175;28;19921;-83
2022/03/25 09:40:51;;;;;;;;;;;12.40;52.60;;;;;;5021440;28;19922;-82
2022/03/25 09:43:20;;;;;;;;;;;12.60;52.90;;;;;;5033023;28;19953;-83
2022/03/25 09:45:45;;;;;;;;;;;12.60;52.90;;;;;;5027008;28;19988;-83
2022/03/25 09:48:13;;;;;;;;;;;12.70;52.30;;;;;;5050791;28;19959;-82
2022/03/25 09:50:40;;;;;;;;;;;12.80;48.90;;;;;;5013828;28;19913;-82
2022/03/25 09:53:06;;;;;;;;;;;12.90;48.80;;;;;;5015184;28;19909;-82
2022/03/25 09:55:33;;;;;;;;;;;13.10;51.30;;;;;;5037604;28;19909;-85
2022/03/25 09:57:59;;;;;;;;;;;13.20;47.90;;;;;;5032870;28;19920;-83
2022/03/25 10:00:25;;;;;;;;;;;13.10;47.70;;;;;;5039975;28;19925;-83
2022/03/25 10:02:50;;;;;;;;;;;13.20;47.70;;;;;;5047693;28;19921;-82
2022/03/25 10:05:17;;;;;;;;;;;13.50;46.90;;;;;;5044739;28;19910;-82
2022/03/25 10:07:44;;;;;;;;;;;13.50;47.30;;;;;;5036489;28;19914;-82
2022/03/25 10:10:09;;;;;;;;;;;13.50;47.40;;;;;;5032562;28;19971;-82
2022/03/25 10:12:36;;;;;;;;;;;13.60;44.90;;;;;;5030422;28;19921;-81
2022/03/25 10:15:21;;;;;;;;;;;13.70;45.30;;;;;;5038091;28;19917;-84
2022/03/25 10:17:50;;;;;;;;;;;13.70;46.60;;;;;;5043071;28;19913;-82
2022/03/25 10:20:17;;;;;;;;;;;13.80;47.50;;;;;;5044825;28;19921;-81
2022/03/25 10:22:56;;;;;;;;;;;13.90;48.30;;;;;;5041990;28;19925;-81
2022/03/25 10:25:34;;;;;;;;;;;14.00;44.30;;;;;;5040935;28;19920;-82
2022/03/25 10:28:00;;;;;;;;;;;14.00;44.10;;;;;;5032500;28;19919;-82
2022/03/25 10:30:39;;;;;;;;;;;14.10;46.00;;;;;;5028418;28;20348;-83
2022/03/25 10:33:24;;;;;;;;;;;14.20;44.20;;;;;;5020410;28;19917;-84
2022/03/25 10:35:54;;;;;;;;;;;14.20;44.60;;;;;;5020316;28;19918;-82
2022/03/25 10:38:21;;;;;;;;;;;14.10;44.50;;;;;;5038985;28;20004;-83
2022/03/25 10:40:50;;;;;;;;;;;14.20;44.40;;;;;;5047181;28;19917;-85
2022/03/25 10:43:15;;;;;;;;;;;14.30;44.60;;;;;;5053040;28;19920;-81
2022/03/25 10:45:45;;;;;;;;;;;14.30;44.10;;;;;;5032504;28;19913;-82
2022/03/25 10:48:12;;;;;;;;;;;14.40;42.40;;;;;;5033145;28;19923;-84
2022/03/25 10:50:56;;;;;;;;;;;14.30;43.70;;;;;;5023266;28;19921;-82
2022/03/25 10:53:22;;;;;;;;;;;14.40;42.70;;;;;;5021990;28;19914;-85
2022/03/25 10:55:55;;;;;;;;;;;14.40;45.30;;;;;;5033887;28;19924;-81
2022/03/25 10:58:20;;;;;;;;;;;14.50;44.90;;;;;;5033626;28;19924;-82
2022/03/25 11:00:46;;;;;;;;;;;14.30;45.00;;;;;;5034226;28;19920;-83
2022/03/25 11:03:14;;;;;;;;;;;14.40;44.80;;;;;;5038238;28;19929;-83
2022/03/25 11:05:39;;;;;;;;;;;14.50;46.40;;;;;;5036793;28;19917;-83
2022/03/25 11:08:05;;;;;;;;;;;14.70;48.20;;;;;;5035031;28;19920;-85
2022/03/25 11:10:31;;;;;;;;;;;14.70;48.80;;;;;;5034849;28;19984;-82
2022/03/25 11:12:57;;;;;;;;;;;14.80;47.70;;;;;;5036985;28;19913;-83
2022/03/25 11:15:23;;;;;;;;;;;14.80;47.30;;;;;;5034252;28;20640;-82
2022/03/25 11:17:48;;;;;;;;;;;15.00;45.40;;;;;;5025391;28;19957;-84
2022/03/25 11:20:14;;;;;;;;;;;14.90;45.40;;;;;;5039443;28;20328;-83
2022/03/25 11:22:50;;;;;;;;;;;14.90;47.60;;;;;;5029545;28;19921;-82
2022/03/25 11:25:16;;;;;;;;;;;15.00;45.50;;;;;;5035673;28;19971;-83
2022/03/25 11:27:46;;;;;;;;;;;15.00;46.90;;;;;;5032093;28;20004;-83
2022/03/25 11:30:13;;;;;;;;;;;15.10;46.60;;;;;;5038650;28;20416;-81
2022/03/25 11:32:48;;;;;;;;;;;15.00;46.50;;;;;;5052088;28;19913;-82
2022/03/25 11:35:20;;;;;;;;;;;15.00;48.30;;;;;;5034097;28;19909;-82
2022/03/25 11:37:46;;;;;;;;;;;15.10;48.60;;;;;;5039113;28;19914;-83
2022/03/25 11:40:15;;;;;;;;;;;15.10;47.20;;;;;;5029519;28;19920;-83
2022/03/25 11:42:40;;;;;;;;;;;15.20;47.20;;;;;;5036203;28;19924;-84
2022/03/25 11:45:21;;;;;;;;;;;15.20;47.70;;;;;;5036605;28;19991;-84
2022/03/25 11:48:08;;;;;;;;;;;15.30;44.30;;;;;;5047505;28;19909;-83
2022/03/25 11:50:40;;;;;;;;;;;15.30;47.60;;;;;;5039090;28;19981;-84
2022/03/25 11:53:26;;;;;;;;;;;15.40;44.90;;;;;;5036625;28;19920;-83
2022/03/25 11:56:01;;;;;;;;;;;15.30;44.50;;;;;;5018450;28;19917;-84
2022/03/25 11:58:27;;;;;;;;;;;15.40;45.80;;;;;;5016615;28;20012;-84
2022/03/25 12:01:03;;;;;;;;;;;15.50;45.20;;;;;;5029910;28;19982;-82
2022/03/25 12:03:49;;;;;;;;;;;15.30;45.10;;;;;;5035480;28;20381;-83
2022/03/25 12:06:19;;;;;;;;;;;15.40;47.00;;;;;;5032439;28;19913;-85
2022/03/25 12:09:03;;;;;;;;;;;15.60;47.60;;;;;;5034366;28;19988;-83
2022/03/25 12:11:48;;;;;;;;;;;15.70;47.20;;;;;;5037568;28;19944;-80
2022/03/25 12:14:13;;;;;;;;;;;15.60;45.80;;;;;;5029080;28;19926;-80
2022/03/25 12:16:45;;;;;;;;;;;15.60;44.00;;;;;;5016618;28;20000;-84
2022/03/25 12:19:26;;;;;;;;;;;15.60;46.40;;;;;;5026938;28;20346;-83
2022/03/25 12:21:58;;;;;;;;;;;15.70;46.50;;;;;;5026380;28;20316;-81
2022/03/25 12:24:24;;;;;;;;;;;15.60;44.50;;;;;;5024753;28;19920;-81
2022/03/25 12:27:02;;;;;;;;;;;15.60;44.90;;;;;;5014079;28;20301;-80
2022/03/25 12:29:29;;;;;;;;;;;15.60;46.00;;;;;;5018598;28;20324;-80
2022/03/25 12:31:54;;;;;;;;;;;15.70;43.80;;;;;;5026608;28;20384;-80
2022/03/25 12:34:28;;;;;;;;;;;15.80;45.50;;;;;;5029568;28;20004;-81
2022/03/25 12:36:56;;;;;;;;;;;15.60;43.80;;;;;;5030095;28;19976;-82
2022/03/25 12:39:22;;;;;;;;;;;15.60;44.90;;;;;;5028818;28;20082;-81
2022/03/25 12:41:49;;;;;;;;;;;15.80;46.10;;;;;;5023515;28;19921;-80
2022/03/25 12:44:14;;;;;;;;;;;15.70;44.20;;;;;;5032092;28;20007;-80
2022/03/25 12:46:40;;;;;;;;;;;15.70;44.50;;;;;;5030255;28;20357;-80
2022/03/25 12:49:06;;;;;;;;;;;15.80;44.70;;;;;;5024435;28;19917;-81
2022/03/25 12:51:32;;;;;;;;;;;15.90;45.90;;;;;;5027559;28;19921;-83
2022/03/25 12:53:58;;;;;;;;;;;16.10;44.70;;;;;;5015464;28;19913;-80
2022/03/25 12:56:23;;;;;;;;;;;16.00;42.40;;;;;;5031209;28;20349;-80
2022/03/25 12:58:50;;;;;;;;;;;16.10;40.90;;;;;;5037944;28;19924;-80
2022/03/25 13:01:16;;;;;;;;;;;16.00;42.90;;;;;;5020156;28;19917;-80
2022/03/25 13:03:43;;;;;;;;;;;16.00;41.30;;;;;;5023733;28;19913;-82
2022/03/25 13:06:12;;;;;;;;;;;16.00;40.60;;;;;;5025338;28;19952;-81
2022/03/25 13:08:38;;;;;;;;;;;16.00;41.90;;;;;;5023690;28;19913;-81
2022/03/25 13:11:04;;;;;;;;;;;16.10;40.60;;;;;;5018084;28;20300;-81
2022/03/25 13:13:30;;;;;;;;;;;16.20;41.20;;;;;;5022152;28;19913;-80
2022/03/25 13:16:00;;;;;;;;;;;16.10;39.90;;;;;;5025429;28;19913;-82
2022/03/25 13:18:29;;;;;;;;;;;16.10;39.80;;;;;;5043121;28;19913;-83
2022/03/25 13:20:55;;;;;;;;;;;16.20;41.30;;;;;;5013853;28;20007;-82
2022/03/25 13:23:22;;;;;;;;;;;16.20;41.80;;;;;;5024552;28;20000;-81
2022/03/25 13:25:51;;;;;;;;;;;16.20;39.90;;;;;;5022139;28;19917;-81
2022/03/25 13:28:25;;;;;;;;;;;16.20;40.30;;;;;;5031227;28;20064;-79
2022/03/25 13:30:51;;;;;;;;;;;16.40;40.20;;;;;;5027364;28;20353;-81
2022/03/25 13:33:24;;;;;;;;;;;16.40;40.00;;;;;;5028970;28;19913;-82
2022/03/25 13:35:57;;;;;;;;;;;16.50;40.00;;;;;;5026407;28;20293;-82
2022/03/25 13:38:24;;;;;;;;;;;16.30;43.20;;;;;;5021456;28;19921;-81
2022/03/25 13:40:51;;;;;;;;;;;16.20;41.00;;;;;;5020505;28;19925;-81
2022/03/25 13:43:21;;;;;;;;;;;16.20;41.70;;;;;;5033005;28;19913;-82
2022/03/25 13:46:02;;;;;;;;;;;16.20;41.10;;;;;;5044093;28;19917;-80
2022/03/25 13:48:44;;;;;;;;;;;16.20;41.20;;;;;;5039418;28;19948;-79
2022/03/25 13:51:16;;;;;;;;;;;16.20;40.30;;;;;;5037955;28;19901;-78
2022/03/25 13:53:41;;;;;;;;;;;16.10;39.40;;;;;;5037172;28;20297;-79
2022/03/25 13:56:27;;;;;;;;;;;16.10;41.30;;;;;;5021132;28;19994;-79
2022/03/25 13:58:54;;;;;;;;;;;16.20;41.70;;;;;;5025225;28;19921;-78
2022/03/25 14:01:35;;;;;;;;;;;16.20;41.20;;;;;;5023855;28;19979;-78
2022/03/25 14:04:02;;;;;;;;;;;16.40;40.60;;;;;;5038250;28;19913;-79
2022/03/25 14:06:32;;;;;;;;;;;16.50;39.50;;;;;;5028844;28;19959;-79
2022/03/25 14:08:57;;;;;;;;;;;16.30;41.90;;;;;;5021189;28;20012;-79
2022/03/25 14:11:31;;;;;;;;;;;16.30;41.00;;;;;;5025750;28;20011;-77
2022/03/25 14:13:57;;;;;;;;;;;16.30;38.50;;;;;;5031589;28;19913;-78
2022/03/25 14:16:26;;;;;;;;;;;16.30;39.60;;;;;;5029605;28;19921;-78
2022/03/25 14:18:52;;;;;;;;;;;16.20;39.90;;;;;;5030068;28;19917;-78
2022/03/25 14:21:33;;;;;;;;;;;16.20;39.90;;;;;;5028933;28;20010;-78
2022/03/25 14:26:45;;;;;;;;;;;16.40;38.60;;;;;;5012889;28;19920;-80
2022/03/25 14:29:11;;;;;;;;;;;16.40;38.70;;;;;;5014268;28;19914;-80
2022/03/25 14:31:37;;;;;;;;;;;16.20;39.50;;;;;;5023338;28;19913;-81